createdAt,value
2018-06-30T00:00:40.227Z,42.30
2018-06-30T00:03:08.708Z,42.10
2018-06-30T00:05:37.824Z,42.20
2018-06-30T00:08:06.249Z,42.00
2018-06-30T00:10:34.493Z,42.20
2018-06-30T00:13:02.732Z,42.30
2018-06-30T00:15:32.180Z,42.10
2018-06-30T00:18:01.002Z,42.10
2018-06-30T00:20:31.435Z,42.30
2018-06-30T00:23:00.652Z,42.50
2018-06-30T00:25:29.011Z,42.70
2018-06-30T00:27:57.493Z,42.60
2018-06-30T00:30:26.608Z,42.40
2018-06-30T00:32:56.243Z,42.60
2018-06-30T00:35:24.544Z,42.90
2018-06-30T00:37:53.515Z,42.90
2018-06-30T00:40:21.933Z,43.00
2018-06-30T00:42:50.160Z,42.90
2018-06-30T00:45:18.972Z,43.00
2018-06-30T00:47:47.546Z,43.00
2018-06-30T00:50:15.987Z,43.40
2018-06-30T00:52:45.175Z,43.30
2018-06-30T00:55:14.136Z,42.90
2018-06-30T00:57:42.429Z,42.70
2018-06-30T01:00:10.682Z,43.00
2018-06-30T01:02:38.963Z,42.70
2018-06-30T01:05:07.518Z,42.40
2018-06-30T01:07:35.781Z,42.70
2018-06-30T01:10:04.012Z,42.90
2018-06-30T01:12:32.356Z,43.30
2018-06-30T01:15:01.506Z,43.00
2018-06-30T01:17:29.737Z,43.20
2018-06-30T01:19:57.977Z,43.00
2018-06-30T01:22:26.214Z,42.80
2018-06-30T01:24:54.835Z,42.60
2018-06-30T01:27:23.678Z,42.60
2018-06-30T01:29:52.657Z,42.90
2018-06-30T01:32:20.934Z,43.10
2018-06-30T01:34:49.143Z,42.90
2018-06-30T01:37:17.386Z,42.80
2018-06-30T01:39:46.386Z,43.00
2018-06-30T01:42:15.801Z,42.90
2018-06-30T01:44:44.315Z,43.10
2018-06-30T01:47:12.530Z,43.10
2018-06-30T01:49:40.745Z,43.20
2018-06-30T01:52:09.111Z,43.30
2018-06-30T01:54:37.550Z,43.50
2018-06-30T01:57:05.869Z,44.00
2018-06-30T01:59:34.178Z,44.20
2018-06-30T02:02:02.392Z,44.10
2018-06-30T02:04:31.285Z,44.40
2018-06-30T02:07:00.221Z,44.40
2018-06-30T02:09:28.507Z,43.90
2018-06-30T02:11:57.138Z,44.40
2018-06-30T02:14:25.420Z,44.70
2018-06-30T02:16:53.716Z,45.10
2018-06-30T02:19:21.998Z,45.10
2018-06-30T02:21:50.253Z,44.60
2018-06-30T02:24:18.507Z,44.70
2018-06-30T02:26:46.698Z,44.30
2018-06-30T02:29:15.710Z,45.00
2018-06-30T02:31:44.124Z,44.90
2018-06-30T02:34:12.571Z,45.10
2018-06-30T02:36:40.881Z,45.20
2018-06-30T02:39:09.883Z,45.50
2018-06-30T02:41:39.074Z,45.60
2018-06-30T02:44:07.474Z,45.80
2018-06-30T02:46:35.705Z,45.30
2018-06-30T02:49:03.916Z,44.70
2018-06-30T02:51:32.158Z,44.70
2018-06-30T02:54:01.450Z,43.90
2018-06-30T02:56:29.797Z,43.90
2018-06-30T02:58:58.083Z,43.20
2018-06-30T03:01:26.334Z,43.50
2018-06-30T03:03:54.593Z,43.30
2018-06-30T03:06:22.926Z,43.40
2018-06-30T03:08:52.152Z,43.30
2018-06-30T03:11:20.374Z,42.80
2018-06-30T03:13:48.827Z,43.10
2018-06-30T03:16:18.009Z,42.50
2018-06-30T03:18:47.456Z,42.20
2018-06-30T03:21:16.830Z,42.80
2018-06-30T03:23:46.186Z,43.00
2018-06-30T03:26:15.791Z,43.20
2018-06-30T03:28:44.580Z,42.80
2018-06-30T03:31:12.818Z,42.40
2018-06-30T03:33:41.050Z,42.70
2018-06-30T03:36:09.281Z,42.30
2018-06-30T03:38:38.217Z,42.40
2018-06-30T03:41:06.490Z,41.70
2018-06-30T03:43:34.717Z,41.90
2018-06-30T03:46:02.962Z,41.90
2018-06-30T03:48:31.277Z,42.10
2018-06-30T03:51:00.118Z,41.80
2018-06-30T03:53:29.121Z,42.30
2018-06-30T03:55:57.373Z,42.40
2018-06-30T03:58:25.617Z,42.00
2018-06-30T04:00:53.840Z,41.30
2018-06-30T04:03:22.721Z,41.30
2018-06-30T04:05:50.933Z,42.10
2018-06-30T04:08:19.148Z,42.50
2018-06-30T04:10:47.518Z,41.90
2018-06-30T04:13:16.381Z,41.60
2018-06-30T04:15:45.379Z,42.30
2018-06-30T04:18:13.641Z,42.00
2018-06-30T04:20:41.842Z,41.40
2018-06-30T04:23:10.054Z,41.70
2018-06-30T04:25:38.384Z,41.50
2018-06-30T04:28:06.744Z,41.50
2018-06-30T04:30:34.956Z,41.70
2018-06-30T04:33:03.191Z,41.60
2018-06-30T04:35:31.427Z,41.70
2018-06-30T04:37:59.802Z,41.80
2018-06-30T04:40:28.022Z,41.50
2018-06-30T04:42:56.286Z,42.00
2018-06-30T04:45:24.524Z,42.20
2018-06-30T04:47:52.829Z,41.70
2018-06-30T04:50:21.034Z,42.10
2018-06-30T04:52:49.260Z,42.20
2018-06-30T04:55:17.789Z,42.20
2018-06-30T04:57:46.246Z,42.60
2018-06-30T05:00:14.492Z,42.60
2018-06-30T05:02:42.790Z,42.20
2018-06-30T05:05:10.997Z,42.40
2018-06-30T05:07:39.214Z,42.50
2018-06-30T05:10:07.592Z,42.10
2018-06-30T05:12:36.130Z,41.80
2018-06-30T05:17:32.462Z,41.40
2018-06-30T05:20:01.844Z,41.10
2018-06-30T05:22:30.772Z,41.10
2018-06-30T05:24:59.846Z,41.60
2018-06-30T05:27:28.051Z,41.40
2018-06-30T05:29:56.268Z,41.20
2018-06-30T05:32:24.467Z,41.10
2018-06-30T05:34:52.842Z,41.40
2018-06-30T05:37:21.099Z,40.50
2018-06-30T05:39:49.309Z,41.00
2018-06-30T05:42:17.508Z,41.20
2018-06-30T05:44:45.912Z,40.80
2018-06-30T05:47:14.294Z,40.80
2018-06-30T05:49:42.514Z,40.90
2018-06-30T05:52:10.776Z,41.20
2018-06-30T05:54:38.954Z,40.80
2018-06-30T05:57:07.579Z,40.60
2018-06-30T05:59:35.825Z,40.40
2018-06-30T06:02:04.027Z,40.70
2018-06-30T06:04:32.236Z,40.80
2018-06-30T06:07:00.577Z,40.70
2018-06-30T06:09:29.070Z,40.70
2018-06-30T06:11:57.302Z,40.80
2018-06-30T06:14:25.497Z,40.60
2018-06-30T06:16:53.714Z,40.30
2018-06-30T06:19:21.914Z,40.40
2018-06-30T06:21:50.142Z,39.90
2018-06-30T06:24:18.479Z,39.90
2018-06-30T06:26:46.942Z,40.40
2018-06-30T06:29:15.749Z,40.50
2018-06-30T06:31:44.987Z,40.40
2018-06-30T06:36:41.211Z,40.10
2018-06-30T06:39:10.422Z,40.40
2018-06-30T06:41:38.736Z,40.50
2018-06-30T06:44:06.929Z,40.70
2018-06-30T06:46:35.171Z,40.60
2018-06-30T06:49:03.361Z,40.30
2018-06-30T06:51:31.690Z,39.90
2018-06-30T06:53:59.961Z,39.80
2018-06-30T06:56:28.272Z,39.30
2018-06-30T06:58:56.530Z,39.70
2018-06-30T07:03:52.854Z,39.60
2018-06-30T07:06:21.198Z,39.60
2018-06-30T07:08:49.529Z,40.10
2018-06-30T07:11:18.063Z,39.00
2018-06-30T07:13:46.457Z,38.70
2018-06-30T07:16:14.709Z,38.70
2018-06-30T07:18:42.978Z,39.70
2018-06-30T07:21:11.773Z,38.40
2018-06-30T07:23:39.954Z,39.00
2018-06-30T07:26:08.928Z,38.60
2018-06-30T07:28:37.199Z,38.10
2018-06-30T07:31:05.421Z,38.50
2018-06-30T07:33:33.668Z,38.90
2018-06-30T07:36:01.863Z,38.80
2018-06-30T07:38:30.963Z,38.80
2018-06-30T07:40:59.266Z,38.80
2018-06-30T07:43:27.686Z,37.80
2018-06-30T07:45:55.874Z,37.70
2018-06-30T07:48:24.081Z,36.80
2018-06-30T07:50:52.331Z,36.30
2018-06-30T07:53:20.502Z,35.70
2018-06-30T07:55:48.734Z,35.00
2018-06-30T07:58:16.955Z,34.90
2018-06-30T08:00:45.736Z,33.00
2018-06-30T08:03:14.653Z,33.00
2018-06-30T08:05:43.014Z,32.20
2018-06-30T08:08:11.240Z,30.20
2018-06-30T08:10:39.458Z,29.60
2018-06-30T08:13:07.889Z,28.60
2018-06-30T08:24:23.079Z,24.60
2018-06-30T08:26:51.485Z,24.00
2018-06-30T08:29:21.586Z,22.80
2018-06-30T08:31:50.353Z,21.70
2018-06-30T08:34:18.928Z,21.10
2018-06-30T08:42:41.102Z,20.20
2018-06-30T08:45:09.344Z,20.10
2018-06-30T08:47:37.676Z,20.30
2018-06-30T08:50:06.050Z,19.30
2018-06-30T08:52:34.249Z,20.00
2018-06-30T08:55:02.500Z,19.50
2018-06-30T08:57:31.434Z,19.00
2018-06-30T08:59:59.806Z,18.40
2018-06-30T09:02:28.055Z,18.10
2018-06-30T09:04:56.310Z,18.80
2018-06-30T09:07:24.670Z,17.90
2018-06-30T09:09:53.727Z,17.40
2018-06-30T09:13:25.202Z,17.30
2018-06-30T09:15:54.184Z,17.50
2018-06-30T09:18:22.471Z,17.90
2018-06-30T09:20:50.696Z,17.70
2018-06-30T09:23:19.011Z,18.00
2018-06-30T09:25:47.534Z,17.80
2018-06-30T09:28:18.478Z,17.30
2018-06-30T09:30:46.861Z,17.40
2018-06-30T09:33:15.183Z,16.60
2018-06-30T09:35:43.454Z,16.50
2018-06-30T09:38:11.771Z,16.00
2018-06-30T09:40:40.001Z,16.30
2018-06-30T09:43:08.445Z,16.00
2018-06-30T09:45:36.672Z,15.80
2018-06-30T09:48:05.036Z,15.90
2018-06-30T09:50:33.349Z,15.40
2018-06-30T09:53:01.870Z,15.30
2018-06-30T09:55:30.806Z,15.10
2018-06-30T09:57:59.722Z,15.70
2018-06-30T10:00:33.149Z,15.10
2018-06-30T10:03:01.346Z,15.90
2018-06-30T10:05:29.843Z,15.80
2018-06-30T10:08:00.910Z,15.50
2018-06-30T10:10:29.506Z,16.20
2018-06-30T10:12:58.478Z,16.00
2018-06-30T10:15:27.125Z,15.70
2018-06-30T10:17:55.386Z,16.10
2018-06-30T10:20:24.078Z,15.90
2018-06-30T10:22:52.298Z,15.90
2018-06-30T10:25:20.516Z,15.70
2018-06-30T10:27:52.332Z,15.20
2018-06-30T10:30:20.559Z,15.60
2018-06-30T10:32:48.823Z,15.90
2018-06-30T10:35:17.081Z,15.00
2018-06-30T10:37:45.519Z,14.90
2018-06-30T10:40:14.632Z,14.80
2018-06-30T10:42:42.975Z,14.10
2018-06-30T10:45:11.222Z,14.20
2018-06-30T10:47:39.480Z,14.30
2018-06-30T10:50:08.669Z,15.10
2018-06-30T10:52:36.994Z,14.90
2018-06-30T10:55:05.873Z,14.80
2018-06-30T10:57:34.248Z,14.60
2018-06-30T11:00:02.491Z,13.90
2018-06-30T11:02:31.727Z,14.10
2018-06-30T11:04:59.964Z,14.30
2018-06-30T11:07:28.168Z,14.50
2018-06-30T11:09:56.490Z,14.00
2018-06-30T11:12:24.714Z,13.70
2018-06-30T11:14:53.126Z,14.10
2018-06-30T11:17:21.702Z,14.00
2018-06-30T11:19:49.977Z,13.40
2018-06-30T11:22:18.659Z,13.40
2018-06-30T11:24:46.950Z,13.20
2018-06-30T11:27:15.932Z,13.60
2018-06-30T11:29:45.020Z,13.40
2018-06-30T11:32:13.254Z,13.60
2018-06-30T11:34:41.481Z,13.70
2018-06-30T11:37:09.705Z,13.40
2018-06-30T11:39:38.186Z,13.60
2018-06-30T11:42:06.619Z,14.10
2018-06-30T11:44:43.748Z,13.00
2018-06-30T11:47:13.390Z,13.00
2018-06-30T11:49:41.848Z,12.80
2018-06-30T11:52:10.137Z,12.90
2018-06-30T11:54:39.143Z,13.10
2018-06-30T11:57:07.398Z,13.00
2018-06-30T11:59:35.782Z,12.60
2018-06-30T12:02:04.198Z,13.20
2018-06-30T12:04:32.512Z,12.30
2018-06-30T12:07:01.779Z,12.90
2018-06-30T12:09:30.106Z,12.50
2018-06-30T12:11:59.969Z,12.20
2018-06-30T12:14:28.407Z,12.40
2018-06-30T12:16:56.639Z,12.20
2018-06-30T12:19:24.836Z,12.60
2018-06-30T12:21:54.204Z,12.70
2018-06-30T12:24:22.450Z,12.80
2018-06-30T12:26:50.666Z,12.40
2018-06-30T12:29:18.993Z,12.10
2018-06-30T12:31:47.218Z,12.40
2018-06-30T12:34:16.570Z,11.90
2018-06-30T12:36:44.965Z,11.90
2018-06-30T12:39:13.253Z,12.00
2018-06-30T12:41:41.705Z,12.20
2018-06-30T12:44:09.922Z,12.20
2018-06-30T12:46:39.082Z,12.40
2018-06-30T12:49:08.190Z,12.00
2018-06-30T12:51:37.615Z,11.90
2018-06-30T12:54:06.123Z,12.40
2018-06-30T12:56:34.342Z,13.10
2018-06-30T12:59:02.835Z,14.00
2018-06-30T13:01:31.374Z,15.10
2018-06-30T13:04:00.550Z,15.00
2018-06-30T13:06:28.883Z,15.80
2018-06-30T13:11:25.294Z,16.40
2018-06-30T13:13:54.494Z,16.00
2018-06-30T13:16:22.972Z,16.90
2018-06-30T13:18:51.556Z,16.10
2018-06-30T13:21:19.829Z,15.40
2018-06-30T13:23:48.030Z,15.90
2018-06-30T13:26:16.426Z,15.30
2018-06-30T13:28:45.305Z,15.90
2018-06-30T13:31:13.542Z,16.30
2018-06-30T13:33:41.771Z,16.90
2018-06-30T13:36:09.979Z,17.70
2018-06-30T13:38:38.881Z,19.00
2018-06-30T13:41:07.334Z,17.70
2018-06-30T13:43:35.639Z,17.10
2018-06-30T13:46:04.127Z,16.20
2018-06-30T13:48:32.607Z,15.30
2018-06-30T13:51:01.142Z,14.20
2018-06-30T13:53:30.490Z,13.40
2018-06-30T13:55:58.739Z,13.10
2018-06-30T13:58:27.199Z,13.10
2018-06-30T14:00:55.641Z,12.70
2018-06-30T14:03:24.375Z,13.30
2018-06-30T14:05:52.840Z,13.00
2018-06-30T14:08:21.080Z,13.70
2018-06-30T14:10:49.311Z,14.00
2018-06-30T14:13:18.028Z,13.50
2018-06-30T14:15:46.410Z,13.30
2018-06-30T14:18:14.839Z,12.40
2018-06-30T14:20:43.098Z,12.10
2018-06-30T14:23:11.347Z,11.70
2018-06-30T14:25:39.626Z,11.40
2018-06-30T14:28:08.318Z,11.40
2018-06-30T14:30:37.741Z,11.40
2018-06-30T14:33:06.145Z,10.70
2018-06-30T14:35:34.477Z,10.80
2018-06-30T14:38:02.702Z,10.60
2018-06-30T14:40:30.993Z,10.30
2018-06-30T14:42:59.565Z,10.30
2018-06-30T14:45:27.795Z,10.20
2018-06-30T14:47:56.020Z,9.90
2018-06-30T14:50:25.474Z,9.80
2018-06-30T14:52:54.396Z,9.90
2018-06-30T14:55:22.858Z,10.10
2018-06-30T14:57:51.159Z,9.70
2018-06-30T15:00:19.382Z,10.00
2018-06-30T15:02:47.792Z,9.80
2018-06-30T15:05:16.126Z,9.70
2018-06-30T15:07:44.686Z,10.30
2018-06-30T15:10:12.888Z,10.10
2018-06-30T15:12:41.269Z,10.80
2018-06-30T15:15:09.477Z,9.90
2018-06-30T15:17:38.522Z,10.00
2018-06-30T15:20:07.010Z,10.00
2018-06-30T15:22:35.246Z,10.00
2018-06-30T15:25:03.526Z,10.10
2018-06-30T15:27:31.942Z,9.90
2018-06-30T15:30:00.155Z,10.40
2018-06-30T15:32:28.410Z,10.00
2018-06-30T15:34:56.812Z,9.60
2018-06-30T15:37:25.047Z,10.20
2018-06-30T15:39:53.959Z,10.40
2018-06-30T15:42:26.470Z,10.10
2018-06-30T15:45:11.273Z,11.00
2018-06-30T15:47:40.207Z,10.20
2018-06-30T15:50:08.602Z,10.20
2018-06-30T15:52:36.870Z,10.00
2018-06-30T15:55:05.917Z,10.30
2018-06-30T15:57:34.194Z,10.90
2018-06-30T16:00:02.426Z,11.00
2018-06-30T16:02:31.770Z,10.90
2018-06-30T16:04:59.985Z,11.30
2018-06-30T16:07:28.254Z,12.40
2018-06-30T16:09:56.533Z,12.90
2018-06-30T16:12:24.797Z,13.10
2018-06-30T16:14:55.413Z,13.50
2018-06-30T16:17:23.671Z,14.10
2018-06-30T16:19:51.904Z,14.20
2018-06-30T16:22:20.136Z,15.00
2018-06-30T16:24:48.378Z,14.80
2018-06-30T16:27:16.641Z,14.80
2018-06-30T16:29:45.007Z,15.60
2018-06-30T16:32:13.236Z,15.50
2018-06-30T16:34:41.470Z,15.20
2018-06-30T16:37:09.706Z,16.10
2018-06-30T16:39:38.678Z,16.00
2018-06-30T16:42:07.599Z,16.70
2018-06-30T16:44:35.968Z,15.80
2018-06-30T16:47:04.184Z,15.90
2018-06-30T16:49:32.405Z,17.40
2018-06-30T16:52:00.820Z,17.20
2018-06-30T16:54:29.417Z,17.70
2018-06-30T16:56:57.654Z,17.10
2018-06-30T16:59:25.963Z,17.40
2018-06-30T17:01:55.282Z,17.80
2018-06-30T17:04:23.673Z,17.80
2018-06-30T17:06:52.541Z,17.90
2018-06-30T17:09:20.748Z,17.70
2018-06-30T17:11:48.986Z,17.80
2018-06-30T17:14:17.233Z,17.30
2018-06-30T17:16:45.635Z,18.00
2018-06-30T17:19:14.017Z,18.20
2018-06-30T17:21:42.335Z,18.50
2018-06-30T17:24:10.586Z,18.60
2018-06-30T17:26:40.150Z,18.20
2018-06-30T17:29:08.890Z,18.60
2018-06-30T17:31:42.477Z,19.00
2018-06-30T17:34:40.254Z,18.40
2018-06-30T17:37:11.898Z,18.30
2018-06-30T17:39:40.090Z,18.50
2018-06-30T17:42:08.367Z,18.40
2018-06-30T17:44:37.064Z,18.80
2018-06-30T17:47:05.322Z,19.00
2018-06-30T17:49:33.591Z,18.60
2018-06-30T17:52:02.951Z,18.90
2018-06-30T17:54:31.198Z,18.90
2018-06-30T17:56:59.428Z,18.70
2018-06-30T17:59:27.630Z,19.00
2018-06-30T18:01:55.904Z,19.50
2018-06-30T18:04:24.792Z,19.40
2018-06-30T18:06:53.367Z,19.60
2018-06-30T18:09:22.457Z,19.40
2018-06-30T18:11:50.635Z,19.60
2018-06-30T18:14:19.018Z,19.70
2018-06-30T18:16:47.214Z,19.70
2018-06-30T18:19:15.507Z,19.50
2018-06-30T18:21:43.767Z,19.60
2018-06-30T18:24:11.980Z,19.70
2018-06-30T18:26:40.357Z,19.80
2018-06-30T18:29:09.067Z,20.80
2018-06-30T18:31:37.332Z,20.00
2018-06-30T18:34:05.781Z,20.50
2018-06-30T18:36:34.082Z,20.60
2018-06-30T18:39:02.296Z,21.50
2018-06-30T18:41:30.575Z,21.30
2018-06-30T18:43:58.821Z,20.90
2018-06-30T18:46:27.111Z,20.40
2018-06-30T18:48:55.362Z,20.40
2018-06-30T18:51:23.645Z,21.00
2018-06-30T18:53:51.895Z,21.40
2018-06-30T18:56:20.100Z,21.30
2018-06-30T18:58:48.307Z,21.90
2018-06-30T19:01:16.736Z,21.40
2018-06-30T19:03:45.182Z,21.90
2018-06-30T19:06:13.411Z,21.80
2018-06-30T19:08:41.665Z,22.00
2018-06-30T19:11:09.857Z,22.10
2018-06-30T19:13:38.093Z,22.70
2018-06-30T19:16:06.359Z,22.20
2018-06-30T19:18:34.575Z,22.30
2018-06-30T19:21:02.816Z,22.40
2018-06-30T19:23:31.196Z,22.40
2018-06-30T19:25:59.396Z,23.10
2018-06-30T19:28:27.595Z,22.80
2018-06-30T19:30:55.846Z,22.90
2018-06-30T19:33:24.172Z,23.00
2018-06-30T19:35:53.311Z,23.30
2018-06-30T19:38:21.523Z,23.00
2018-06-30T19:40:49.805Z,23.30
2018-06-30T19:43:18.016Z,23.70
2018-06-30T19:45:46.350Z,23.30
2018-06-30T19:48:14.574Z,23.70
2018-06-30T19:50:42.790Z,23.40
2018-06-30T19:53:11.087Z,24.20
2018-06-30T19:55:39.506Z,23.90
2018-06-30T19:58:08.058Z,24.20
2018-06-30T20:00:36.294Z,24.50
2018-06-30T20:03:04.599Z,24.00
2018-06-30T20:05:32.917Z,24.00
2018-06-30T20:08:01.760Z,24.20
2018-06-30T20:10:29.945Z,24.70
2018-06-30T20:12:58.144Z,24.50
2018-06-30T20:15:26.323Z,24.20
2018-06-30T20:17:54.953Z,24.70
2018-06-30T20:20:23.674Z,24.50
2018-06-30T20:22:51.926Z,24.50
2018-06-30T20:25:20.113Z,24.50
2018-06-30T20:27:48.335Z,24.80
2018-06-30T20:30:17.080Z,24.80
2018-06-30T20:32:45.632Z,24.90
2018-06-30T20:35:13.883Z,25.10
2018-06-30T20:37:42.088Z,24.80
2018-06-30T20:40:10.330Z,25.60
2018-06-30T20:42:39.467Z,25.60
2018-06-30T20:45:07.750Z,24.80
2018-06-30T20:47:35.917Z,25.40
2018-06-30T20:50:04.627Z,24.90
2018-06-30T20:52:32.830Z,25.30
2018-06-30T20:55:01.176Z,25.30
2018-06-30T20:57:29.690Z,25.70
2018-06-30T20:59:57.883Z,26.10
2018-06-30T21:02:26.111Z,26.10
2018-06-30T21:04:54.958Z,25.20
2018-06-30T21:07:23.724Z,25.10
2018-06-30T21:09:51.947Z,25.00
2018-06-30T21:12:20.171Z,24.90
2018-06-30T21:14:48.418Z,25.30
2018-06-30T21:17:16.678Z,25.20
2018-06-30T21:19:45.443Z,25.00
2018-06-30T21:22:13.660Z,25.30
2018-06-30T21:24:41.869Z,25.40
2018-06-30T21:27:10.067Z,25.00
2018-06-30T21:29:38.348Z,24.90
2018-06-30T21:32:06.556Z,24.80
2018-06-30T21:34:34.833Z,25.30
2018-06-30T21:37:03.059Z,24.80
2018-06-30T21:39:31.902Z,25.60
2018-06-30T21:42:00.513Z,24.80
2018-06-30T21:44:28.703Z,25.30
2018-06-30T21:46:56.908Z,25.70
2018-06-30T21:49:25.085Z,26.90
2018-06-30T21:51:53.467Z,25.50
2018-06-30T21:54:21.682Z,25.60
2018-06-30T21:56:50.038Z,24.70
2018-06-30T21:59:18.168Z,26.00
2018-06-30T22:01:46.368Z,25.50
2018-06-30T22:04:14.597Z,25.00
2018-06-30T22:06:42.781Z,25.00
2018-06-30T22:09:11.370Z,25.00
2018-06-30T22:11:40.316Z,25.10
2018-06-30T22:14:08.574Z,26.40
2018-06-30T22:16:36.764Z,25.80
2018-06-30T22:19:04.983Z,25.90
2018-06-30T22:21:33.201Z,25.70
2018-06-30T22:24:01.645Z,25.00
2018-06-30T22:26:30.094Z,25.50
2018-06-30T22:28:58.320Z,25.60
2018-06-30T22:31:26.526Z,25.80
2018-06-30T22:33:54.726Z,25.30
2018-06-30T22:36:22.935Z,25.20
2018-06-30T22:38:51.410Z,25.40
2018-06-30T22:41:19.635Z,26.50
2018-06-30T22:43:47.941Z,25.60
2018-06-30T22:46:16.651Z,26.10
2018-06-30T22:48:44.842Z,26.40
2018-06-30T22:51:13.055Z,25.70
2018-06-30T22:53:41.275Z,25.90
2018-06-30T22:56:09.522Z,26.60
2018-06-30T22:58:38.199Z,26.20
2018-06-30T23:01:06.480Z,26.30
2018-06-30T23:03:34.704Z,26.10
2018-06-30T23:06:02.890Z,27.20
2018-06-30T23:08:31.287Z,26.70
2018-06-30T23:10:59.511Z,26.40
2018-06-30T23:13:27.722Z,26.90
2018-06-30T23:15:55.908Z,26.60
2018-06-30T23:18:24.315Z,27.30
2018-06-30T23:20:52.516Z,27.30
2018-06-30T23:23:20.736Z,27.10
2018-06-30T23:25:48.931Z,27.50
2018-06-30T23:28:18.243Z,26.80
2018-06-30T23:30:46.457Z,27.50
2018-06-30T23:33:14.658Z,27.70
2018-06-30T23:35:42.875Z,27.40
2018-06-30T23:38:11.400Z,27.80
2018-06-30T23:40:40.140Z,27.80
2018-06-30T23:43:09.149Z,27.50
2018-06-30T23:45:38.285Z,27.60
2018-06-30T23:48:06.467Z,27.50
2018-06-30T23:50:34.662Z,27.90
2018-06-30T23:53:02.907Z,27.60
2018-06-30T23:55:31.530Z,27.70
2018-06-30T23:57:59.824Z,27.80
